メインページ
METAR-TAF:

METAR-TAF

空港 :

モントリオール・トルドー, ケベック州, カナダ

モントリオール・ピエール・エリオット・トルドー国際空港

緯度: 45-28N, 経度: 073-45W, 海抜: 31m

現時点の気象観測

当レポートは33分前の16:00(UTC)に作成
西の風 9kt
気温 2°C
湿度 93%
気圧 1015 hPa
視程: 24.1km
高度900ftの雲はほとんどない
高度1100ftの曇り

METAR: CYUL 221600Z 26009KT 15SM FEW009 OVC011 02/01 A2997 RMK SF2SF6 SLP151

時間: 11:33 (16:33 UTC)

予報

当レポートは1時間53分前の14:40(UTC)に作成
予報は22日の 15時(UTC)から 23日の 12時(UTC)まで有効
西/南西の風 10kt
視程: 10km
高度700ftの雲はほとんどない
高度1500ftの雲は散在している
高度2500ftの曇り
小雨
22日の 15時(UTC)から 22日の 16時(UTC)まで一時的に
視程: 8.0km
高度700ftの千切れ雲あり
高度1500ftの曇り
小雨, 靄
22日の 1600時(UTC)から
西の風 12kt
視程: 10km
高度1500ftの雲は散在している
高度5000ftの曇り
22日の 16時(UTC)から 22日の 20時(UTC)まで一時的に
高度1500ftの千切れ雲あり
高度5000ftの曇り
22日の 2000時(UTC)から
西の風 15kt
視程: 10km
高度3000ftの千切れ雲あり
23日の 0500時(UTC)から
西/北西の風 10kt
視程: 10km
高度3000ftの雲は散在している

TAF: CYUL 221440Z 2215/2312 25010KT P6SM -RA FEW007 SCT015 OVC025 TEMPO 2215/2216 5SM -RA BR BKN007 OVC015 FM221600 28012KT P6SM SCT015 OVC050 TEMPO 2216/2220 BKN015 OVC050 FM222000 28015KT P6SM BKN030 FM230500 29010KT P6SM SCT030 RMK NXT FCST BY 221800Z

4,000以上の空港の気象観測と天気予報(METAR報とTAF報)

利用可能な観測所は地図上に黄色い丸と赤い丸で示す。

丸の上にカーソルを重ねると観測所名を参照できる。

次にクリックすると気象観測と天気予報を参照できる。

マップの切り替え:黒色「×」印の緑ボタンをクリックして拡大、「-」印の緑ボタンをクリックして縮小、緑色の三角印をクリックして隣りの地図に切り替え


METAR-TAF: